sensor_id;sensor_type;location;lat;lon;timestamp;P1;durP1;ratioP1;P2;durP2;ratioP2
3225;SDS011;1625;49.884;8.666;2022-10-29T00:01:04;11.57;;;7.33;;
3225;SDS011;1625;49.884;8.666;2022-10-29T00:04:49;11.77;;;6.37;;
3225;SDS011;1625;49.884;8.666;2022-10-29T00:32:18;13.00;;;6.90;;
3225;SDS011;1625;49.884;8.666;2022-10-29T00:59:39;8.80;;;6.40;;
3225;SDS011;1625;49.884;8.666;2022-10-29T01:06:25;10.50;;;7.27;;
3225;SDS011;1625;49.884;8.666;2022-10-29T02:01:45;12.50;;;6.40;;
3225;SDS011;1625;49.884;8.666;2022-10-29T02:18:23;11.43;;;6.40;;
3225;SDS011;1625;49.884;8.666;2022-10-29T02:22:00;9.47;;;6.90;;
3225;SDS011;1625;49.884;8.666;2022-10-29T03:00:51;9.23;;;7.90;;
3225;SDS011;1625;49.884;8.666;2022-10-29T03:04:26;15.93;;;7.40;;
3225;SDS011;1625;49.884;8.666;2022-10-29T03:15:01;8.53;;;7.40;;
3225;SDS011;1625;49.884;8.666;2022-10-29T03:21:53;8.80;;;7.43;;
3225;SDS011;1625;49.884;8.666;2022-10-29T03:28:45;12.50;;;6.80;;
3225;SDS011;1625;49.884;8.666;2022-10-29T03:35:46;10.33;;;7.60;;
3225;SDS011;1625;49.884;8.666;2022-10-29T03:53:17;10.63;;;7.07;;
3225;SDS011;1625;49.884;8.666;2022-10-29T04:41:14;7.93;;;6.70;;
3225;SDS011;1625;49.884;8.666;2022-10-29T04:44:32;8.90;;;6.47;;
3225;SDS011;1625;49.884;8.666;2022-10-29T05:21:53;10.10;;;7.27;;
3225;SDS011;1625;49.884;8.666;2022-10-29T05:24:48;10.20;;;7.07;;
3225;SDS011;1625;49.884;8.666;2022-10-29T05:27:26;10.83;;;7.70;;
3225;SDS011;1625;49.884;8.666;2022-10-29T05:29:57;12.00;;;6.90;;
3225;SDS011;1625;49.884;8.666;2022-10-29T05:33:33;10.60;;;6.93;;
3225;SDS011;1625;49.884;8.666;2022-10-29T05:36:40;9.30;;;6.20;;
3225;SDS011;1625;49.884;8.666;2022-10-29T05:39:11;10.03;;;6.97;;
3225;SDS011;1625;49.884;8.666;2022-10-29T05:52:33;12.30;;;7.17;;
3225;SDS011;1625;49.884;8.666;2022-10-29T05:55:25;7.37;;;6.30;;
3225;SDS011;1625;49.884;8.666;2022-10-29T05:57:55;7.87;;;7.07;;
3225;SDS011;1625;49.884;8.666;2022-10-29T06:00:22;9.23;;;6.73;;
3225;SDS011;1625;49.884;8.666;2022-10-29T06:02:48;8.53;;;6.57;;
3225;SDS011;1625;49.884;8.666;2022-10-29T06:05:14;7.53;;;6.33;;
3225;SDS011;1625;49.884;8.666;2022-10-29T06:07:41;10.90;;;6.47;;
3225;SDS011;1625;49.884;8.666;2022-10-29T06:10:06;12.00;;;7.00;;
3225;SDS011;1625;49.884;8.666;2022-10-29T06:12:33;11.20;;;6.07;;
3225;SDS011;1625;49.884;8.666;2022-10-29T06:14:59;10.13;;;6.60;;
3225;SDS011;1625;49.884;8.666;2022-10-29T06:17:25;8.90;;;6.97;;
3225;SDS011;1625;49.884;8.666;2022-10-29T06:19:51;8.30;;;6.63;;
3225;SDS011;1625;49.884;8.666;2022-10-29T06:22:16;9.37;;;7.17;;
3225;SDS011;1625;49.884;8.666;2022-10-29T06:24:42;11.13;;;7.00;;
3225;SDS011;1625;49.884;8.666;2022-10-29T06:27:07;16.43;;;7.63;;
3225;SDS011;1625;49.884;8.666;2022-10-29T06:29:33;9.60;;;7.03;;
3225;SDS011;1625;49.884;8.666;2022-10-29T06:31:58;11.60;;;7.47;;
3225;SDS011;1625;49.884;8.666;2022-10-29T06:34:24;11.63;;;7.60;;
3225;SDS011;1625;49.884;8.666;2022-10-29T06:36:49;8.53;;;6.90;;
3225;SDS011;1625;49.884;8.666;2022-10-29T06:39:15;10.73;;;8.30;;
3225;SDS011;1625;49.884;8.666;2022-10-29T06:41:40;8.63;;;7.17;;
3225;SDS011;1625;49.884;8.666;2022-10-29T06:44:06;7.70;;;6.83;;
3225;SDS011;1625;49.884;8.666;2022-10-29T06:46:31;11.50;;;7.40;;
3225;SDS011;1625;49.884;8.666;2022-10-29T06:48:58;8.93;;;7.20;;
3225;SDS011;1625;49.884;8.666;2022-10-29T06:51:25;7.50;;;6.80;;
3225;SDS011;1625;49.884;8.666;2022-10-29T06:53:50;9.47;;;7.10;;
3225;SDS011;1625;49.884;8.666;2022-10-29T06:56:17;11.03;;;7.70;;
3225;SDS011;1625;49.884;8.666;2022-10-29T06:58:43;15.30;;;7.70;;
3225;SDS011;1625;49.884;8.666;2022-10-29T07:01:09;8.43;;;7.33;;
3225;SDS011;1625;49.884;8.666;2022-10-29T07:03:34;11.47;;;8.03;;
3225;SDS011;1625;49.884;8.666;2022-10-29T07:06:00;10.20;;;7.20;;
3225;SDS011;1625;49.884;8.666;2022-10-29T07:08:25;10.10;;;7.50;;
3225;SDS011;1625;49.884;8.666;2022-10-29T07:10:52;12.40;;;7.70;;
3225;SDS011;1625;49.884;8.666;2022-10-29T07:13:18;10.10;;;7.63;;
3225;SDS011;1625;49.884;8.666;2022-10-29T07:15:44;7.53;;;6.70;;
3225;SDS011;1625;49.884;8.666;2022-10-29T07:18:10;9.73;;;7.77;;
3225;SDS011;1625;49.884;8.666;2022-10-29T07:20:37;8.37;;;7.10;;
3225;SDS011;1625;49.884;8.666;2022-10-29T07:23:08;8.47;;;7.00;;
3225;SDS011;1625;49.884;8.666;2022-10-29T07:25:35;10.00;;;6.93;;
3225;SDS011;1625;49.884;8.666;2022-10-29T07:28:12;13.47;;;8.10;;
3225;SDS011;1625;49.884;8.666;2022-10-29T07:30:40;9.57;;;8.50;;
3225;SDS011;1625;49.884;8.666;2022-10-29T07:33:06;14.03;;;8.47;;
3225;SDS011;1625;49.884;8.666;2022-10-29T07:35:32;10.27;;;6.70;;
3225;SDS011;1625;49.884;8.666;2022-10-29T07:37:59;11.67;;;7.70;;
3225;SDS011;1625;49.884;8.666;2022-10-29T07:40:26;13.13;;;7.53;;
3225;SDS011;1625;49.884;8.666;2022-10-29T07:42:52;10.13;;;7.57;;
3225;SDS011;1625;49.884;8.666;2022-10-29T07:45:18;11.17;;;7.37;;
3225;SDS011;1625;49.884;8.666;2022-10-29T07:47:43;10.47;;;9.10;;
3225;SDS011;1625;49.884;8.666;2022-10-29T07:50:09;10.27;;;7.40;;
3225;SDS011;1625;49.884;8.666;2022-10-29T07:52:35;8.20;;;7.17;;
3225;SDS011;1625;49.884;8.666;2022-10-29T07:55:01;10.27;;;7.93;;
3225;SDS011;1625;49.884;8.666;2022-10-29T07:57:27;11.83;;;8.10;;
3225;SDS011;1625;49.884;8.666;2022-10-29T07:59:53;10.27;;;8.27;;
3225;SDS011;1625;49.884;8.666;2022-10-29T08:02:18;10.97;;;8.27;;
3225;SDS011;1625;49.884;8.666;2022-10-29T08:04:44;11.27;;;8.80;;
3225;SDS011;1625;49.884;8.666;2022-10-29T08:07:09;17.03;;;10.03;;
3225;SDS011;1625;49.884;8.666;2022-10-29T08:09:35;10.50;;;9.40;;
3225;SDS011;1625;49.884;8.666;2022-10-29T08:12:00;15.93;;;10.87;;
3225;SDS011;1625;49.884;8.666;2022-10-29T08:14:28;14.77;;;10.43;;
3225;SDS011;1625;49.884;8.666;2022-10-29T08:16:54;14.00;;;9.80;;
3225;SDS011;1625;49.884;8.666;2022-10-29T08:19:20;14.63;;;8.90;;
3225;SDS011;1625;49.884;8.666;2022-10-29T08:21:46;14.93;;;9.20;;
3225;SDS011;1625;49.884;8.666;2022-10-29T08:24:11;11.37;;;8.93;;
3225;SDS011;1625;49.884;8.666;2022-10-29T08:26:37;16.30;;;9.43;;
3225;SDS011;1625;49.884;8.666;2022-10-29T08:29:02;11.53;;;8.73;;
3225;SDS011;1625;49.884;8.666;2022-10-29T08:31:28;11.47;;;9.33;;
3225;SDS011;1625;49.884;8.666;2022-10-29T08:33:54;13.83;;;9.57;;
3225;SDS011;1625;49.884;8.666;2022-10-29T08:36:19;10.57;;;9.00;;
3225;SDS011;1625;49.884;8.666;2022-10-29T08:38:45;15.13;;;9.23;;
3225;SDS011;1625;49.884;8.666;2022-10-29T08:41:19;12.93;;;9.27;;
3225;SDS011;1625;49.884;8.666;2022-10-29T08:47:15;11.20;;;8.83;;
3225;SDS011;1625;49.884;8.666;2022-10-29T08:49:59;13.90;;;8.93;;
3225;SDS011;1625;49.884;8.666;2022-10-29T08:52:42;21.50;;;14.80;;
3225;SDS011;1625;49.884;8.666;2022-10-29T08:55:16;12.50;;;8.70;;
3225;SDS011;1625;49.884;8.666;2022-10-29T08:57:46;11.87;;;9.23;;
3225;SDS011;1625;49.884;8.666;2022-10-29T09:00:25;11.03;;;8.13;;
3225;SDS011;1625;49.884;8.666;2022-10-29T09:03:07;11.40;;;9.17;;
3225;SDS011;1625;49.884;8.666;2022-10-29T09:05:48;12.47;;;8.97;;
3225;SDS011;1625;49.884;8.666;2022-10-29T09:11:32;13.73;;;9.00;;
3225;SDS011;1625;49.884;8.666;2022-10-29T09:14:18;10.97;;;8.20;;
3225;SDS011;1625;49.884;8.666;2022-10-29T09:17:01;9.50;;;8.00;;
3225;SDS011;1625;49.884;8.666;2022-10-29T09:20:03;9.90;;;8.70;;
3225;SDS011;1625;49.884;8.666;2022-10-29T09:23:00;11.20;;;8.13;;
3225;SDS011;1625;49.884;8.666;2022-10-29T09:25:52;9.37;;;8.00;;
3225;SDS011;1625;49.884;8.666;2022-10-29T09:29:14;12.07;;;8.17;;
3225;SDS011;1625;49.884;8.666;2022-10-29T09:31:24;14.67;;;8.70;;
3225;SDS011;1625;49.884;8.666;2022-10-29T09:33:57;10.03;;;7.93;;
3225;SDS011;1625;49.884;8.666;2022-10-29T09:36:29;12.23;;;8.30;;
3225;SDS011;1625;49.884;8.666;2022-10-29T09:38:56;11.57;;;9.90;;
3225;SDS011;1625;49.884;8.666;2022-10-29T09:41:31;11.40;;;8.57;;
3225;SDS011;1625;49.884;8.666;2022-10-29T09:43:58;10.43;;;7.67;;
3225;SDS011;1625;49.884;8.666;2022-10-29T09:49:18;13.90;;;10.10;;
3225;SDS011;1625;49.884;8.666;2022-10-29T09:52:03;9.60;;;7.67;;
3225;SDS011;1625;49.884;8.666;2022-10-29T09:54:34;8.70;;;7.77;;
3225;SDS011;1625;49.884;8.666;2022-10-29T09:57:00;12.13;;;8.70;;
3225;SDS011;1625;49.884;8.666;2022-10-29T09:59:32;9.23;;;7.30;;
3225;SDS011;1625;49.884;8.666;2022-10-29T10:02:00;9.77;;;7.50;;
3225;SDS011;1625;49.884;8.666;2022-10-29T10:04:33;14.13;;;8.30;;
3225;SDS011;1625;49.884;8.666;2022-10-29T10:07:11;11.23;;;8.50;;
3225;SDS011;1625;49.884;8.666;2022-10-29T10:09:57;9.43;;;7.83;;
3225;SDS011;1625;49.884;8.666;2022-10-29T10:15:53;13.60;;;7.73;;
3225;SDS011;1625;49.884;8.666;2022-10-29T10:22:51;11.40;;;7.87;;
3225;SDS011;1625;49.884;8.666;2022-10-29T10:25:33;12.20;;;8.13;;
3225;SDS011;1625;49.884;8.666;2022-10-29T10:28:25;10.77;;;8.33;;
3225;SDS011;1625;49.884;8.666;2022-10-29T10:33:28;11.20;;;7.90;;
3225;SDS011;1625;49.884;8.666;2022-10-29T10:35:59;9.97;;;7.47;;
3225;SDS011;1625;49.884;8.666;2022-10-29T10:38:27;10.30;;;7.60;;
3225;SDS011;1625;49.884;8.666;2022-10-29T10:40:54;10.40;;;7.50;;
3225;SDS011;1625;49.884;8.666;2022-10-29T10:43:28;11.73;;;8.37;;
3225;SDS011;1625;49.884;8.666;2022-10-29T10:45:57;11.00;;;7.13;;
3225;SDS011;1625;49.884;8.666;2022-10-29T10:48:30;10.73;;;6.60;;
3225;SDS011;1625;49.884;8.666;2022-10-29T10:51:12;12.10;;;7.63;;
3225;SDS011;1625;49.884;8.666;2022-10-29T10:53:51;9.23;;;6.47;;
3225;SDS011;1625;49.884;8.666;2022-10-29T10:56:18;10.63;;;6.77;;
3225;SDS011;1625;49.884;8.666;2022-10-29T10:58:46;10.13;;;6.13;;
3225;SDS011;1625;49.884;8.666;2022-10-29T11:01:40;8.23;;;5.70;;
3225;SDS011;1625;49.884;8.666;2022-10-29T11:06:44;9.80;;;6.23;;
3225;SDS011;1625;49.884;8.666;2022-10-29T11:11:57;8.13;;;6.20;;
3225;SDS011;1625;49.884;8.666;2022-10-29T11:14:36;9.27;;;6.80;;
3225;SDS011;1625;49.884;8.666;2022-10-29T11:17:07;9.10;;;6.67;;
3225;SDS011;1625;49.884;8.666;2022-10-29T11:19:49;11.40;;;7.33;;
3225;SDS011;1625;49.884;8.666;2022-10-29T11:22:31;12.07;;;6.10;;
3225;SDS011;1625;49.884;8.666;2022-10-29T11:25:04;8.23;;;7.10;;
3225;SDS011;1625;49.884;8.666;2022-10-29T11:27:50;8.07;;;6.67;;
3225;SDS011;1625;49.884;8.666;2022-10-29T11:30:17;11.90;;;6.90;;
3225;SDS011;1625;49.884;8.666;2022-10-29T11:32:47;11.70;;;7.20;;
3225;SDS011;1625;49.884;8.666;2022-10-29T11:35:48;9.00;;;7.20;;
3225;SDS011;1625;49.884;8.666;2022-10-29T11:40:54;8.90;;;6.93;;
3225;SDS011;1625;49.884;8.666;2022-10-29T11:43:22;8.50;;;7.07;;
3225;SDS011;1625;49.884;8.666;2022-10-29T11:46:01;9.77;;;6.83;;
3225;SDS011;1625;49.884;8.666;2022-10-29T11:51:17;9.70;;;7.73;;
3225;SDS011;1625;49.884;8.666;2022-10-29T11:56:47;12.00;;;7.17;;
3225;SDS011;1625;49.884;8.666;2022-10-29T12:05:24;12.70;;;7.37;;
3225;SDS011;1625;49.884;8.666;2022-10-29T12:11:05;12.30;;;8.13;;
3225;SDS011;1625;49.884;8.666;2022-10-29T12:16:43;10.77;;;8.23;;
3225;SDS011;1625;49.884;8.666;2022-10-29T12:56:31;13.80;;;12.00;;
3225;SDS011;1625;49.884;8.666;2022-10-29T13:38:11;8.47;;;7.63;;
3225;SDS011;1625;49.884;8.666;2022-10-29T13:45:01;14.10;;;9.47;;
3225;SDS011;1625;49.884;8.666;2022-10-29T13:51:52;10.90;;;8.33;;
3225;SDS011;1625;49.884;8.666;2022-10-29T14:12:31;12.63;;;8.33;;
3225;SDS011;1625;49.884;8.666;2022-10-29T14:22:55;13.30;;;9.23;;
3225;SDS011;1625;49.884;8.666;2022-10-29T14:48:09;9.60;;;8.60;;
3225;SDS011;1625;49.884;8.666;2022-10-29T14:54:57;13.53;;;8.83;;
3225;SDS011;1625;49.884;8.666;2022-10-29T16:50:43;12.20;;;10.67;;
3225;SDS011;1625;49.884;8.666;2022-10-29T16:54:14;14.50;;;10.90;;
3225;SDS011;1625;49.884;8.666;2022-10-29T16:57:22;14.40;;;11.23;;
3225;SDS011;1625;49.884;8.666;2022-10-29T17:00:36;14.77;;;11.23;;
3225;SDS011;1625;49.884;8.666;2022-10-29T17:24:32;11.20;;;8.90;;
3225;SDS011;1625;49.884;8.666;2022-10-29T20:24:11;13.03;;;8.90;;
3225;SDS011;1625;49.884;8.666;2022-10-29T20:34:26;11.50;;;8.73;;
3225;SDS011;1625;49.884;8.666;2022-10-29T20:36:53;9.97;;;8.97;;
3225;SDS011;1625;49.884;8.666;2022-10-29T20:39:28;9.90;;;8.57;;
3225;SDS011;1625;49.884;8.666;2022-10-29T20:41:59;12.53;;;9.30;;
3225;SDS011;1625;49.884;8.666;2022-10-29T20:44:29;10.50;;;8.43;;
3225;SDS011;1625;49.884;8.666;2022-10-29T20:46:55;16.50;;;9.70;;
3225;SDS011;1625;49.884;8.666;2022-10-29T20:49:21;9.47;;;8.57;;
3225;SDS011;1625;49.884;8.666;2022-10-29T20:51:47;14.00;;;10.20;;
3225;SDS011;1625;49.884;8.666;2022-10-29T20:54:14;10.53;;;8.73;;
3225;SDS011;1625;49.884;8.666;2022-10-29T20:56:46;10.00;;;9.00;;
3225;SDS011;1625;49.884;8.666;2022-10-29T20:59:12;11.30;;;9.00;;
3225;SDS011;1625;49.884;8.666;2022-10-29T21:01:39;10.90;;;9.60;;
3225;SDS011;1625;49.884;8.666;2022-10-29T21:04:06;16.00;;;9.90;;
3225;SDS011;1625;49.884;8.666;2022-10-29T21:06:34;13.03;;;8.20;;
3225;SDS011;1625;49.884;8.666;2022-10-29T21:09:01;12.13;;;8.23;;
3225;SDS011;1625;49.884;8.666;2022-10-29T21:11:31;13.87;;;8.87;;
3225;SDS011;1625;49.884;8.666;2022-10-29T21:14:06;9.93;;;8.70;;
3225;SDS011;1625;49.884;8.666;2022-10-29T21:17:00;9.00;;;8.20;;
3225;SDS011;1625;49.884;8.666;2022-10-29T21:19:27;10.77;;;8.47;;
3225;SDS011;1625;49.884;8.666;2022-10-29T21:21:53;13.97;;;8.37;;
3225;SDS011;1625;49.884;8.666;2022-10-29T21:24:21;12.23;;;7.20;;
3225;SDS011;1625;49.884;8.666;2022-10-29T21:26:48;8.87;;;7.93;;
3225;SDS011;1625;49.884;8.666;2022-10-29T21:29:15;13.07;;;8.50;;
3225;SDS011;1625;49.884;8.666;2022-10-29T21:31:46;8.03;;;7.23;;
3225;SDS011;1625;49.884;8.666;2022-10-29T21:34:14;11.80;;;9.00;;
3225;SDS011;1625;49.884;8.666;2022-10-29T21:36:41;9.83;;;7.90;;
3225;SDS011;1625;49.884;8.666;2022-10-29T21:39:07;9.53;;;7.43;;
3225;SDS011;1625;49.884;8.666;2022-10-29T21:41:34;14.00;;;8.30;;
3225;SDS011;1625;49.884;8.666;2022-10-29T21:44:00;10.07;;;8.03;;
3225;SDS011;1625;49.884;8.666;2022-10-29T21:46:28;13.13;;;8.67;;
3225;SDS011;1625;49.884;8.666;2022-10-29T21:48:54;8.90;;;7.77;;
3225;SDS011;1625;49.884;8.666;2022-10-29T21:51:21;10.70;;;8.47;;
3225;SDS011;1625;49.884;8.666;2022-10-29T21:54:04;11.50;;;9.30;;
3225;SDS011;1625;49.884;8.666;2022-10-29T21:56:59;12.17;;;8.40;;
3225;SDS011;1625;49.884;8.666;2022-10-29T22:02:43;9.67;;;8.00;;
3225;SDS011;1625;49.884;8.666;2022-10-29T22:05:09;10.83;;;7.90;;
3225;SDS011;1625;49.884;8.666;2022-10-29T22:07:36;11.03;;;7.60;;
3225;SDS011;1625;49.884;8.666;2022-10-29T22:10:03;8.50;;;7.70;;
3225;SDS011;1625;49.884;8.666;2022-10-29T22:12:52;8.23;;;7.40;;
3225;SDS011;1625;49.884;8.666;2022-10-29T22:15:18;13.63;;;7.23;;
3225;SDS011;1625;49.884;8.666;2022-10-29T22:17:47;14.07;;;9.03;;
3225;SDS011;1625;49.884;8.666;2022-10-29T22:20:13;13.00;;;9.30;;
3225;SDS011;1625;49.884;8.666;2022-10-29T22:22:40;11.40;;;7.43;;
3225;SDS011;1625;49.884;8.666;2022-10-29T22:25:08;8.80;;;7.80;;
3225;SDS011;1625;49.884;8.666;2022-10-29T22:27:34;9.00;;;8.10;;
3225;SDS011;1625;49.884;8.666;2022-10-29T22:30:01;8.63;;;7.80;;
3225;SDS011;1625;49.884;8.666;2022-10-29T22:32:27;9.20;;;7.80;;
3225;SDS011;1625;49.884;8.666;2022-10-29T22:34:54;8.67;;;7.67;;
3225;SDS011;1625;49.884;8.666;2022-10-29T22:37:20;9.77;;;8.20;;
3225;SDS011;1625;49.884;8.666;2022-10-29T22:39:47;9.40;;;8.40;;
3225;SDS011;1625;49.884;8.666;2022-10-29T22:42:15;10.53;;;8.00;;
3225;SDS011;1625;49.884;8.666;2022-10-29T22:44:49;10.03;;;8.03;;
3225;SDS011;1625;49.884;8.666;2022-10-29T22:47:24;11.03;;;7.97;;
3225;SDS011;1625;49.884;8.666;2022-10-29T22:49:51;8.77;;;7.87;;
3225;SDS011;1625;49.884;8.666;2022-10-29T22:52:20;11.23;;;8.27;;
3225;SDS011;1625;49.884;8.666;2022-10-29T22:55:02;9.93;;;7.63;;
3225;SDS011;1625;49.884;8.666;2022-10-29T22:57:55;10.57;;;7.93;;
3225;SDS011;1625;49.884;8.666;2022-10-29T23:00:23;10.97;;;8.20;;
3225;SDS011;1625;49.884;8.666;2022-10-29T23:02:49;9.00;;;7.77;;
3225;SDS011;1625;49.884;8.666;2022-10-29T23:05:15;8.57;;;7.40;;
3225;SDS011;1625;49.884;8.666;2022-10-29T23:07:42;10.60;;;7.67;;
3225;SDS011;1625;49.884;8.666;2022-10-29T23:10:08;11.90;;;7.87;;
3225;SDS011;1625;49.884;8.666;2022-10-29T23:12:35;9.47;;;8.13;;
3225;SDS011;1625;49.884;8.666;2022-10-29T23:15:02;10.30;;;7.60;;
3225;SDS011;1625;49.884;8.666;2022-10-29T23:17:28;10.17;;;8.43;;
3225;SDS011;1625;49.884;8.666;2022-10-29T23:19:56;13.57;;;7.53;;
3225;SDS011;1625;49.884;8.666;2022-10-29T23:22:23;9.77;;;7.80;;
3225;SDS011;1625;49.884;8.666;2022-10-29T23:25:20;10.37;;;7.40;;
3225;SDS011;1625;49.884;8.666;2022-10-29T23:27:47;12.77;;;9.00;;
3225;SDS011;1625;49.884;8.666;2022-10-29T23:30:13;12.10;;;9.50;;
3225;SDS011;1625;49.884;8.666;2022-10-29T23:32:39;8.63;;;7.80;;
3225;SDS011;1625;49.884;8.666;2022-10-29T23:35:06;9.13;;;7.57;;
3225;SDS011;1625;49.884;8.666;2022-10-29T23:37:32;15.30;;;7.83;;
3225;SDS011;1625;49.884;8.666;2022-10-29T23:39:59;13.83;;;7.97;;
3225;SDS011;1625;49.884;8.666;2022-10-29T23:42:28;7.93;;;6.97;;
3225;SDS011;1625;49.884;8.666;2022-10-29T23:44:57;10.10;;;7.77;;
3225;SDS011;1625;49.884;8.666;2022-10-29T23:47:23;8.63;;;7.70;;
3225;SDS011;1625;49.884;8.666;2022-10-29T23:49:52;9.27;;;8.37;;
3225;SDS011;1625;49.884;8.666;2022-10-29T23:52:20;13.00;;;8.40;;
3225;SDS011;1625;49.884;8.666;2022-10-29T23:54:48;11.77;;;8.47;;
3225;SDS011;1625;49.884;8.666;2022-10-29T23:57:24;12.17;;;8.57;;
3225;SDS011;1625;49.884;8.666;2022-10-29T23:59:51;9.87;;;7.97;;
